Time;durP1;ratioP1;P1;durP2;ratioP2;P2;SDS_P1;SDS_P2;PMS_P1;PMS_P2;Temp;Humidity;BMP_temperature;BMP_pressure;BME280_temperature;BME280_humidity;BME280_pressure;Samples;Min_cycle;Max_cycle;Signal;HPM_P1;HPM_P2
2023/04/19 00:00:07;;;;;;;;;;;;;;;23.68;44.59;102363.13;7256079;19;154661;-81
2023/04/19 00:02:34;;;;;;;;;;;;;;;23.64;44.39;102357.25;7259885;19;154188;-81
2023/04/19 00:05:02;;;;;;;;;;;;;;;23.62;44.79;102353.88;7255563;19;153695;-80
2023/04/19 00:07:30;;;;;;;;;;;;;;;23.58;44.82;102354.75;7260395;19;153599;-81
2023/04/19 00:09:57;;;;;;;;;;;;;;;23.55;44.79;102353.38;7260220;19;154111;-81
2023/04/19 00:12:25;;;;;;;;;;;;;;;23.51;44.81;102360.75;7261518;19;154626;-81
2023/04/19 00:14:52;;;;;;;;;;;;;;;23.47;45.19;102356.84;7268134;19;155840;-81
2023/04/19 00:17:20;;;;;;;;;;;;;;;23.45;44.91;102348.66;7259297;19;153881;-80
2023/04/19 00:19:47;;;;;;;;;;;;;;;23.42;45.01;102359.66;7261072;19;153394;-81
2023/04/19 00:22:14;;;;;;;;;;;;;;;23.38;45.03;102341.63;7252202;19;154136;-81
2023/04/19 00:28:00;;;;;;;;;;;;;;;23.31;45.43;102346.75;7259234;19;154393;-81
2023/04/19 00:30:27;;;;;;;;;;;;;;;23.32;45.64;102343.66;7261274;19;154490;-81
2023/04/19 00:32:55;;;;;;;;;;;;;;;23.31;45.59;102336.31;7260476;19;153692;-81
2023/04/19 00:35:24;;;;;;;;;;;;;;;23.25;45.41;102340.34;7262797;19;152885;-80
2023/04/19 00:37:53;;;;;;;;;;;;;;;23.24;45.75;102327.38;7254147;19;152395;-80
2023/04/19 00:40:20;;;;;;;;;;;;;;;23.19;45.75;102335.84;7258526;19;153653;-81
2023/04/19 00:42:48;;;;;;;;;;;;;;;23.18;45.70;102334.16;7260870;19;155022;-81
2023/04/19 00:45:16;;;;;;;;;;;;;;;23.18;45.99;102331.34;7255904;19;153748;-80
2023/04/19 00:47:43;;;;;;;;;;;;;;;23.22;45.82;102332.44;7254280;19;153119;-81
2023/04/19 00:50:11;;;;;;;;;;;;;;;23.18;45.92;102324.84;7254957;19;154574;-81
2023/04/19 00:52:38;;;;;;;;;;;;;;;23.14;46.09;102323.75;7263992;19;153553;-81
2023/04/19 00:55:06;;;;;;;;;;;;;;;23.11;46.33;102324.34;7259753;19;154830;-81
2023/04/19 00:57:34;;;;;;;;;;;;;;;23.08;46.42;102320.13;7269073;19;155298;-81
2023/04/19 01:00:04;;;;;;;;;;;;;;;23.09;46.29;102318.16;7262025;19;153903;-81
2023/04/19 01:02:31;;;;;;;;;;;;;;;23.02;46.72;102316.53;7262231;19;155423;-81
2023/04/19 01:04:59;;;;;;;;;;;;;;;23.03;46.48;102321.00;7255453;19;154591;-81
2023/04/19 01:07:26;;;;;;;;;;;;;;;23.03;46.51;102315.38;7259501;19;155747;-81
2023/04/19 01:09:53;;;;;;;;;;;;;;;22.98;46.95;102308.94;7258490;19;155286;-81
2023/04/19 01:12:21;;;;;;;;;;;;;;;22.93;46.82;102307.00;7258349;19;154022;-80
2023/04/19 01:14:49;;;;;;;;;;;;;;;22.93;47.09;102309.81;7262408;19;153730;-81
2023/04/19 01:17:16;;;;;;;;;;;;;;;22.91;47.48;102305.59;7257183;19;154631;-81
2023/04/19 01:19:43;;;;;;;;;;;;;;;22.91;47.28;102302.78;7263197;19;153608;-81
2023/04/19 01:22:13;;;;;;;;;;;;;;;22.88;47.23;102301.41;7255509;19;153452;-79
2023/04/19 01:24:41;;;;;;;;;;;;;;;22.83;47.43;102300.56;7263091;19;153622;-80
2023/04/19 01:27:08;;;;;;;;;;;;;;;22.83;47.49;102295.78;7265039;19;152831;-80
2023/04/19 01:29:35;;;;;;;;;;;;;;;22.81;47.24;102297.19;7264231;19;153616;-81
2023/04/19 01:32:02;;;;;;;;;;;;;;;22.77;47.49;102290.47;7267952;19;153368;-81
2023/04/19 01:34:29;;;;;;;;;;;;;;;22.73;47.62;102287.38;7265478;19;152916;-81
2023/04/19 01:36:56;;;;;;;;;;;;;;;22.73;47.46;102295.00;7265346;19;153394;-81
2023/04/19 01:39:24;;;;;;;;;;;;;;;22.71;47.60;102292.50;7265496;19;154072;-80
2023/04/19 01:41:52;;;;;;;;;;;;;;;22.70;47.86;102289.94;7268507;19;154633;-81
2023/04/19 01:44:19;;;;;;;;;;;;;;;22.64;47.91;102280.66;7267103;19;153603;-80
2023/04/19 01:46:46;;;;;;;;;;;;;;;22.62;47.99;102283.75;7265624;19;154373;-81
2023/04/19 01:49:13;;;;;;;;;;;;;;;22.62;47.88;102288.56;7261595;19;154211;-80
2023/04/19 01:51:39;;;;;;;;;;;;;;;22.61;48.07;102281.25;7264042;19;153698;-80
2023/04/19 01:54:06;;;;;;;;;;;;;;;22.61;47.83;102289.69;7266708;19;154136;-81
2023/04/19 01:56:33;;;;;;;;;;;;;;;22.52;48.17;102283.81;7262004;19;153959;-80
2023/04/19 01:59:00;;;;;;;;;;;;;;;22.52;48.37;102286.63;7262269;19;153559;-80
2023/04/19 02:01:31;;;;;;;;;;;;;;;22.48;48.42;102288.34;7261274;19;152697;-81
2023/04/19 02:03:58;;;;;;;;;;;;;;;22.48;48.06;102288.34;7270429;19;155170;-81
2023/04/19 02:06:25;;;;;;;;;;;;;;;22.46;48.08;102282.16;7264631;19;152492;-81
2023/04/19 02:08:52;;;;;;;;;;;;;;;22.45;48.34;102279.63;7264400;19;152141;-81
2023/04/19 02:11:19;;;;;;;;;;;;;;;22.43;48.30;102276.25;7259967;19;153853;-80
2023/04/19 02:13:46;;;;;;;;;;;;;;;22.42;48.43;102274.56;7246762;19;155134;-80
2023/04/19 02:16:14;;;;;;;;;;;;;;;22.37;48.80;102278.25;7249672;19;155642;-80
2023/04/19 02:18:41;;;;;;;;;;;;;;;22.36;48.51;102276.56;7262104;19;153786;-80
2023/04/19 02:21:08;;;;;;;;;;;;;;;22.33;48.71;102279.97;7259110;19;156586;-81
2023/04/19 02:23:36;;;;;;;;;;;;;;;22.35;48.69;102274.06;7259830;19;153598;-80
2023/04/19 02:26:03;;;;;;;;;;;;;;;22.30;48.77;102274.91;7269489;19;153682;-80
2023/04/19 02:28:30;;;;;;;;;;;;;;;22.30;48.83;102269.28;7262481;19;153410;-80
2023/04/19 02:30:58;;;;;;;;;;;;;;;22.24;48.65;102258.31;7258967;19;153217;-79
2023/04/19 02:33:26;;;;;;;;;;;;;;;22.23;48.75;102257.47;7262400;19;154518;-81
2023/04/19 02:35:53;;;;;;;;;;;;;;;22.21;49.09;102256.94;7258748;19;155942;-82
2023/04/19 02:38:20;;;;;;;;;;;;;;;22.20;48.90;102254.41;7260162;19;154565;-82
2023/04/19 02:40:47;;;;;;;;;;;;;;;22.21;48.98;102261.72;7266510;19;153054;-82
2023/04/19 02:43:14;;;;;;;;;;;;;;;22.15;49.67;102252.44;7260257;19;154230;-82
2023/04/19 02:45:41;;;;;;;;;;;;;;;22.14;49.38;102260.06;7270328;19;154072;-82
2023/04/19 02:48:08;;;;;;;;;;;;;;;22.14;49.14;102254.41;7265642;19;155012;-82
2023/04/19 02:50:36;;;;;;;;;;;;;;;22.14;49.59;102259.22;7261166;19;154409;-82
2023/04/19 02:53:03;;;;;;;;;;;;;;;22.10;49.66;102267.38;7262832;19;154655;-82
2023/04/19 02:55:30;;;;;;;;;;;;;;;22.08;49.66;102255.56;7262642;19;154122;-81
2023/04/19 02:57:57;;;;;;;;;;;;;;;22.07;49.44;102261.50;7261630;19;154174;-81
2023/04/19 03:00:24;;;;;;;;;;;;;;;22.05;49.44;102263.75;7257049;19;154525;-81
2023/04/19 03:02:51;;;;;;;;;;;;;;;22.03;49.21;102264.03;7256664;19;156650;-81
2023/04/19 03:05:19;;;;;;;;;;;;;;;22.03;49.51;102260.38;7261998;19;153833;-81
2023/04/19 03:07:46;;;;;;;;;;;;;;;22.02;49.47;102262.34;7272708;19;154811;-81
2023/04/19 03:10:13;;;;;;;;;;;;;;;21.96;49.52;102265.47;7263162;19;153041;-81
2023/04/19 03:12:40;;;;;;;;;;;;;;;21.98;49.15;102260.41;7263233;19;154671;-81
2023/04/19 03:15:07;;;;;;;;;;;;;;;21.93;49.76;102254.78;7257493;19;156001;-81
2023/04/19 03:17:36;;;;;;;;;;;;;;;21.93;49.40;102260.41;7262066;19;153217;-81
2023/04/19 03:22:33;;;;;;;;;;;;;;;21.89;49.56;102256.47;7258447;19;154273;-81
2023/04/19 03:25:00;;;;;;;;;;;;;;;21.91;49.69;102251.38;7258346;19;152004;-81
2023/04/19 03:27:27;;;;;;;;;;;;;;;21.86;49.61;102246.59;7260827;19;152769;-81
2023/04/19 03:29:55;;;;;;;;;;;;;;;21.85;49.81;102255.34;7266229;19;153491;-81
2023/04/19 03:32:22;;;;;;;;;;;;;;;21.86;49.44;102252.22;7260130;19;155658;-81
2023/04/19 03:34:49;;;;;;;;;;;;;;;21.85;49.40;102249.72;7260417;19;154475;-81
2023/04/19 03:37:16;;;;;;;;;;;;;;;21.84;49.77;102242.41;7261572;19;152799;-80
2023/04/19 03:39:43;;;;;;;;;;;;;;;21.80;49.45;102247.75;7261148;19;153694;-81
2023/04/19 03:42:10;;;;;;;;;;;;;;;21.78;49.55;102246.34;7261620;19;153967;-81
2023/04/19 03:44:37;;;;;;;;;;;;;;;21.78;49.86;102249.16;7261267;19;153142;-81
2023/04/19 03:47:04;;;;;;;;;;;;;;;21.75;49.91;102239.34;7259981;19;156484;-81
2023/04/19 03:49:31;;;;;;;;;;;;;;;21.77;49.81;102244.66;7264018;19;153853;-81
2023/04/19 03:51:58;;;;;;;;;;;;;;;21.73;49.81;102244.38;7270048;19;153717;-80
2023/04/19 03:54:25;;;;;;;;;;;;;;;21.71;49.83;102247.47;7262384;19;154805;-81
2023/04/19 03:56:52;;;;;;;;;;;;;;;21.71;49.55;102238.22;7263402;19;153183;-81
2023/04/19 03:59:19;;;;;;;;;;;;;;;21.68;49.61;102231.19;7258458;19;155506;-81
2023/04/19 04:01:46;;;;;;;;;;;;;;;21.69;49.41;102237.66;7258386;19;154847;-82
2023/04/19 04:04:13;;;;;;;;;;;;;;;21.67;49.91;102237.91;7258786;19;154066;-81
2023/04/19 04:06:40;;;;;;;;;;;;;;;21.66;49.83;102235.41;7262480;19;153288;-80
2023/04/19 04:09:07;;;;;;;;;;;;;;;21.65;49.79;102236.53;7259471;19;153644;-80
2023/04/19 04:11:35;;;;;;;;;;;;;;;21.62;49.62;102229.50;7260335;19;152947;-81
2023/04/19 04:14:02;;;;;;;;;;;;;;;21.59;49.87;102235.69;7268262;19;154062;-81
2023/04/19 04:16:29;;;;;;;;;;;;;;;21.59;49.47;102241.31;7260796;19;152556;-80
2023/04/19 04:18:56;;;;;;;;;;;;;;;21.56;49.77;102241.91;7259905;19;154930;-81
2023/04/19 04:21:23;;;;;;;;;;;;;;;21.55;49.50;102245.00;7261983;19;155344;-81
2023/04/19 04:23:52;;;;;;;;;;;;;;;21.54;49.47;102240.47;7259237;19;153138;-81
2023/04/19 04:26:19;;;;;;;;;;;;;;;21.53;49.74;102242.44;7258403;19;154553;-80
2023/04/19 04:28:46;;;;;;;;;;;;;;;21.52;49.84;102240.78;7259869;19;153964;-80
2023/04/19 04:31:13;;;;;;;;;;;;;;;21.52;49.79;102242.75;7259369;19;155289;-80
2023/04/19 04:33:40;;;;;;;;;;;;;;;21.47;49.91;102235.16;7260788;19;154634;-81
2023/04/19 04:36:10;;;;;;;;;;;;;;;21.46;50.18;102244.72;7269996;19;152858;-81
2023/04/19 04:38:37;;;;;;;;;;;;;;;21.43;50.02;102242.50;7261306;19;155405;-80
2023/04/19 04:41:04;;;;;;;;;;;;;;;21.48;49.79;102245.28;7257493;19;154193;-81
2023/04/19 04:43:32;;;;;;;;;;;;;;;21.44;49.84;102246.16;7259145;19;153076;-81
2023/04/19 04:46:00;;;;;;;;;;;;;;;21.42;49.89;102248.38;7256078;19;154692;-80
2023/04/19 04:48:27;;;;;;;;;;;;;;;21.40;49.83;102253.44;7256648;19;154209;-80
2023/04/19 04:50:54;;;;;;;;;;;;;;;21.39;50.09;102254.59;7255650;19;153773;-80
2023/04/19 04:53:21;;;;;;;;;;;;;;;21.36;49.66;102255.97;7263018;19;154628;-81
2023/04/19 04:55:48;;;;;;;;;;;;;;;21.34;50.01;102258.25;7267722;19;154537;-81
2023/04/19 04:58:15;;;;;;;;;;;;;;;21.35;49.95;102256.28;7262871;19;153968;-81
2023/04/19 05:00:44;;;;;;;;;;;;;;;21.32;50.18;102262.44;7264869;19;154025;-80
2023/04/19 05:03:11;;;;;;;;;;;;;;;21.30;49.98;102255.13;7270026;19;153852;-81
2023/04/19 05:05:39;;;;;;;;;;;;;;;21.32;49.71;102259.63;7266438;19;156516;-81
2023/04/19 05:08:06;;;;;;;;;;;;;;;21.29;49.79;102259.09;7266097;19;153606;-80
2023/04/19 05:10:33;;;;;;;;;;;;;;;21.29;50.28;102263.88;7264698;19;154592;-80
2023/04/19 05:13:00;;;;;;;;;;;;;;;21.27;49.80;102254.84;7261341;19;154806;-80
2023/04/19 05:15:27;;;;;;;;;;;;;;;21.26;50.25;102265.25;7261729;19;154245;-81
2023/04/19 05:17:54;;;;;;;;;;;;;;;21.21;49.95;102262.44;7273473;19;153551;-80
2023/04/19 05:20:21;;;;;;;;;;;;;;;21.20;50.05;102265.56;7259450;19;153168;-81
2023/04/19 05:22:48;;;;;;;;;;;;;;;21.21;49.75;102262.44;7264103;19;153654;-81
2023/04/19 05:25:15;;;;;;;;;;;;;;;21.19;49.98;102261.91;7266981;19;153467;-81
2023/04/19 05:27:42;;;;;;;;;;;;;;;21.18;49.83;102257.38;7264131;19;153577;-80
2023/04/19 05:30:09;;;;;;;;;;;;;;;21.16;49.85;102265.28;7263857;19;154673;-81
2023/04/19 05:32:36;;;;;;;;;;;;;;;21.16;50.15;102268.09;7267052;19;154076;-80
2023/04/19 05:35:04;;;;;;;;;;;;;;;21.15;49.92;102268.34;7264341;19;154809;-81
2023/04/19 05:37:31;;;;;;;;;;;;;;;21.18;49.60;102263.00;7266175;19;155309;-80
2023/04/19 05:39:58;;;;;;;;;;;;;;;21.27;49.37;102266.94;7272948;19;154717;-81
2023/04/19 05:42:25;;;;;;;;;;;;;;;21.31;49.89;102272.84;7263104;19;153070;-80
2023/04/19 05:44:52;;;;;;;;;;;;;;;21.36;49.90;102275.66;7264695;19;153469;-81
2023/04/19 05:47:20;;;;;;;;;;;;;;;21.42;49.70;102277.34;7264646;19;154406;-81
2023/04/19 05:49:47;;;;;;;;;;;;;;;21.47;49.77;102276.50;7268784;19;153537;-81
2023/04/19 05:52:14;;;;;;;;;;;;;;;21.49;49.70;102277.03;7264865;19;153667;-81
2023/04/19 05:54:42;;;;;;;;;;;;;;;21.50;50.32;102285.22;7263210;19;153782;-80
2023/04/19 05:57:09;;;;;;;;;;;;;;;21.53;50.50;102286.63;7264261;19;151954;-80
2023/04/19 05:59:37;;;;;;;;;;;;;;;21.56;50.54;102283.25;7261377;19;154590;-81
2023/04/19 06:02:04;;;;;;;;;;;;;;;21.61;50.42;102286.06;7271674;19;153928;-80
2023/04/19 06:04:31;;;;;;;;;;;;;;;21.65;50.48;102290.81;7259597;19;155027;-80
2023/04/19 06:06:58;;;;;;;;;;;;;;;21.70;50.88;102282.38;7262424;19;154716;-80
2023/04/19 06:09:26;;;;;;;;;;;;;;;21.76;50.61;102290.81;7264176;19;153729;-81
2023/04/19 06:11:54;;;;;;;;;;;;;;;21.82;50.18;102289.66;7265487;19;152691;-80
2023/04/19 06:14:21;;;;;;;;;;;;;;;21.85;50.40;102284.31;7260667;19;153960;-81
2023/04/19 06:16:49;;;;;;;;;;;;;;;21.92;50.33;102284.00;7266682;19;153420;-82
2023/04/19 06:19:16;;;;;;;;;;;;;;;21.97;50.38;102287.69;7267252;19;153747;-81
2023/04/19 06:21:44;;;;;;;;;;;;;;;22.02;50.46;102284.88;7268312;19;154064;-81
2023/04/19 06:24:12;;;;;;;;;;;;;;;22.08;49.98;102288.50;7277840;19;154010;-82
2023/04/19 06:26:40;;;;;;;;;;;;;;;22.13;49.79;102275.25;7272518;19;154515;-82
2023/04/19 06:29:07;;;;;;;;;;;;;;;22.19;49.62;102284.53;7274120;19;153711;-83
2023/04/19 06:31:34;;;;;;;;;;;;;;;22.23;49.35;102282.81;7273660;19;153641;-82
2023/04/19 06:34:01;;;;;;;;;;;;;;;22.27;48.99;102281.09;7276627;19;153627;-82
2023/04/19 06:36:28;;;;;;;;;;;;;;;22.31;48.54;102285.03;7275565;19;152928;-82
2023/04/19 06:38:55;;;;;;;;;;;;;;;22.36;48.40;102279.38;7272786;19;156014;-81
2023/04/19 06:41:22;;;;;;;;;;;;;;;22.40;48.30;102288.94;7268788;19;158247;-83
2023/04/19 06:43:49;;;;;;;;;;;;;;;22.43;47.95;102282.75;7274073;19;152048;-83
2023/04/19 06:46:17;;;;;;;;;;;;;;;22.44;47.40;102287.22;7270623;19;155923;-81
2023/04/19 06:48:44;;;;;;;;;;;;;;;22.40;45.29;102280.47;7261108;19;153758;-80
2023/04/19 06:51:11;;;;;;;;;;;;;;;22.07;41.33;102284.00;7259373;19;155473;-80
2023/04/19 06:53:38;;;;;;;;;;;;;;;21.95;40.09;102286.28;7261046;19;154409;-79
2023/04/19 06:56:06;;;;;;;;;;;;;;;21.83;39.44;102280.94;7253604;19;154707;-79
2023/04/19 06:58:33;;;;;;;;;;;;;;;21.76;39.25;102285.19;7257900;19;154050;-80
2023/04/19 07:01:03;;;;;;;;;;;;;;;21.66;39.18;102281.28;7252288;19;154729;-79
2023/04/19 07:03:31;;;;;;;;;;;;;;;21.51;38.96;102280.44;7257304;19;154226;-79
2023/04/19 07:05:58;;;;;;;;;;;;;;;21.39;39.59;102285.50;7263819;19;153242;-79
2023/04/19 07:08:26;;;;;;;;;;;;;;;21.33;39.24;102292.25;7255894;19;154635;-79
2023/04/19 07:11:04;;;;;;;;;;;;;;;21.23;39.59;102291.13;7255208;19;155228;-80
2023/04/19 07:13:31;;;;;;;;;;;;;;;21.19;39.45;102287.19;7255396;19;153971;-79
2023/04/19 07:15:58;;;;;;;;;;;;;;;21.12;39.50;102295.00;7256589;19;152983;-80
2023/04/19 07:18:26;;;;;;;;;;;;;;;20.99;39.62;102300.31;7261938;19;153866;-79
2023/04/19 07:20:53;;;;;;;;;;;;;;;20.95;39.88;102308.47;7254814;19;153712;-79
2023/04/19 07:23:20;;;;;;;;;;;;;;;20.82;40.26;102301.44;7257180;19;155305;-79
2023/04/19 07:25:47;;;;;;;;;;;;;;;20.73;40.44;102299.44;7259511;19;154415;-79
2023/04/19 07:28:14;;;;;;;;;;;;;;;20.75;41.12;102302.84;7266829;19;154064;-80
2023/04/19 07:30:44;;;;;;;;;;;;;;;20.87;41.29;102300.59;7259240;19;153819;-81
2023/04/19 07:33:12;;;;;;;;;;;;;;;21.00;41.67;102316.06;7268316;19;153971;-82
2023/04/19 07:35:39;;;;;;;;;;;;;;;21.12;41.54;102309.06;7274318;19;152942;-82
2023/04/19 07:38:06;;;;;;;;;;;;;;;21.17;41.47;102305.44;7274494;19;152786;-82
2023/04/19 07:40:33;;;;;;;;;;;;;;;21.15;42.37;102314.19;7267670;19;154651;-82
2023/04/19 07:43:00;;;;;;;;;;;;;;;21.16;42.58;102312.22;7266676;19;152761;-82
2023/04/19 07:45:29;;;;;;;;;;;;;;;21.13;43.01;102310.78;7267762;19;152921;-83
2023/04/19 07:47:56;;;;;;;;;;;;;;;21.10;43.02;102316.09;7270431;19;155172;-82
2023/04/19 07:50:25;;;;;;;;;;;;;;;21.08;43.03;102313.56;7282104;19;154479;-82
2023/04/19 07:52:53;;;;;;;;;;;;;;;21.05;43.18;102313.28;7274425;19;154076;-82
2023/04/19 07:55:20;;;;;;;;;;;;;;;21.04;43.65;102309.63;7268911;19;152947;-82
2023/04/19 07:57:48;;;;;;;;;;;;;;;21.03;43.64;102307.09;7273628;19;152900;-82
2023/04/19 08:00:15;;;;;;;;;;;;;;;21.01;43.77;102303.72;7269878;19;154078;-82
2023/04/19 08:02:44;;;;;;;;;;;;;;;21.01;43.62;102306.53;7277349;19;153790;-82
2023/04/19 08:05:12;;;;;;;;;;;;;;;20.98;43.73;102315.53;7268739;19;153025;-83
2023/04/19 08:07:39;;;;;;;;;;;;;;;21.00;43.82;102313.25;7272412;19;155397;-82
2023/04/19 08:10:07;;;;;;;;;;;;;;;20.98;44.26;102307.09;7276068;19;152824;-82
2023/04/19 08:12:34;;;;;;;;;;;;;;;21.01;44.09;102313.00;7284240;19;153304;-82
2023/04/19 08:15:13;;;;;;;;;;;;;;;21.01;43.96;102318.63;7273471;19;153329;-82
2023/04/19 08:18:00;;;;;;;;;;;;;;;21.04;43.88;102322.81;7277557;19;155350;-82
2023/04/19 08:20:27;;;;;;;;;;;;;;;21.06;44.21;102321.44;7273471;19;154049;-82
2023/04/19 08:22:55;;;;;;;;;;;;;;;21.07;44.03;102322.28;7283231;19;153470;-82
2023/04/19 08:25:27;;;;;;;;;;;;;;;21.06;43.89;102324.25;7282841;19;155550;-83
2023/04/19 08:27:54;;;;;;;;;;;;;;;21.08;44.20;102324.78;7284886;19;155941;-83
2023/04/19 08:30:21;;;;;;;;;;;;;;;21.09;44.38;102317.22;7279631;19;152941;-83
2023/04/19 08:32:48;;;;;;;;;;;;;;;21.09;44.06;102329.31;7284199;19;153544;-82
2023/04/19 08:35:16;;;;;;;;;;;;;;;21.10;44.00;102321.72;7291255;19;153662;-83
2023/04/19 08:37:43;;;;;;;;;;;;;;;21.09;44.15;102328.44;7288737;19;152976;-83
2023/04/19 08:40:10;;;;;;;;;;;;;;;21.11;44.27;102331.84;7282603;19;154684;-83
2023/04/19 08:42:37;;;;;;;;;;;;;;;21.07;44.31;102333.53;7287636;19;153234;-82
2023/04/19 08:45:05;;;;;;;;;;;;;;;21.09;44.13;102334.06;7285992;19;153444;-83
2023/04/19 08:47:36;;;;;;;;;;;;;;;21.08;44.55;102335.19;7282267;19;153647;-82
2023/04/19 08:50:23;;;;;;;;;;;;;;;21.08;44.22;102333.22;7287623;19;153925;-82
2023/04/19 08:53:02;;;;;;;;;;;;;;;21.06;44.14;102331.84;7289500;19;153778;-83
2023/04/19 08:55:32;;;;;;;;;;;;;;;21.08;44.35;102333.22;7292742;19;153582;-83
2023/04/19 08:58:01;;;;;;;;;;;;;;;21.06;44.08;102338.28;7294261;19;153354;-83
2023/04/19 09:00:32;;;;;;;;;;;;;;;21.07;44.13;102339.16;7286928;19;153809;-82
2023/04/19 09:02:59;;;;;;;;;;;;;;;21.05;44.09;102342.22;7292590;19;153064;-83
2023/04/19 09:05:27;;;;;;;;;;;;;;;21.04;44.54;102334.06;7290788;19;152923;-83
2023/04/19 09:07:55;;;;;;;;;;;;;;;21.02;44.46;102339.97;7292022;19;153636;-83
2023/04/19 09:10:23;;;;;;;;;;;;;;;21.02;44.26;102341.94;7294015;19;152517;-83
2023/04/19 09:12:53;;;;;;;;;;;;;;;21.00;44.38;102342.22;7292241;19;153909;-83
2023/04/19 09:15:34;;;;;;;;;;;;;;;20.97;44.67;102339.13;7290764;19;152612;-82
2023/04/19 09:18:04;;;;;;;;;;;;;;;20.97;44.36;102350.34;7299250;19;153572;-84
2023/04/19 09:20:35;;;;;;;;;;;;;;;20.97;44.51;102339.13;7289185;19;153517;-82
2023/04/19 09:23:04;;;;;;;;;;;;;;;20.96;44.69;102341.09;7292705;19;153234;-84
2023/04/19 09:25:32;;;;;;;;;;;;;;;20.92;44.58;102339.09;7290155;19;153057;-83
2023/04/19 09:28:19;;;;;;;;;;;;;;;20.90;44.91;102330.94;7283765;19;155883;-82
2023/04/19 09:30:46;;;;;;;;;;;;;;;20.88;44.88;102336.00;7274065;19;152844;-83
2023/04/19 09:33:35;;;;;;;;;;;;;;;20.88;44.97;102335.16;7275915;19;153083;-83
2023/04/19 09:36:02;;;;;;;;;;;;;;;20.89;44.65;102337.72;7271380;19;155857;-82
2023/04/19 09:38:30;;;;;;;;;;;;;;;20.89;44.64;102328.44;7274847;19;153505;-83
2023/04/19 09:41:00;;;;;;;;;;;;;;;20.86;44.93;102333.47;7277031;19;153792;-82
2023/04/19 09:43:27;;;;;;;;;;;;;;;20.86;44.52;102329.81;7273406;19;152521;-83
2023/04/19 09:46:17;;;;;;;;;;;;;;;20.85;44.69;102334.59;7273423;19;154433;-83
2023/04/19 09:48:44;;;;;;;;;;;;;;;20.85;44.91;102328.13;7275462;19;154601;-82
2023/04/19 09:51:12;;;;;;;;;;;;;;;20.82;44.48;102326.72;7278694;19;154718;-82
2023/04/19 09:53:42;;;;;;;;;;;;;;;20.83;44.97;102325.59;7279354;19;153382;-82
2023/04/19 09:56:11;;;;;;;;;;;;;;;20.81;44.99;102325.03;7277133;19;155084;-83
2023/04/19 09:58:38;;;;;;;;;;;;;;;20.81;44.84;102325.03;7277852;19;154319;-83
2023/04/19 10:01:21;;;;;;;;;;;;;;;20.82;44.93;102329.53;7274297;19;155641;-82
2023/04/19 10:03:48;;;;;;;;;;;;;;;20.80;44.91;102314.91;7281972;19;154359;-82
2023/04/19 10:06:18;;;;;;;;;;;;;;;20.82;44.79;102321.09;7272504;19;154978;-82
2023/04/19 10:08:49;;;;;;;;;;;;;;;20.82;45.00;102312.66;7270500;19;153699;-82
2023/04/19 10:11:17;;;;;;;;;;;;;;;20.76;44.87;102310.97;7272016;19;152948;-82
2023/04/19 10:13:46;;;;;;;;;;;;;;;20.78;44.94;102317.16;7273433;19;154362;-82
2023/04/19 10:16:13;;;;;;;;;;;;;;;20.77;44.64;102312.66;7265739;19;154213;-82
2023/04/19 10:18:46;;;;;;;;;;;;;;;20.74;45.11;102304.78;7269042;19;153434;-81
2023/04/19 10:21:14;;;;;;;;;;;;;;;20.73;44.80;102303.09;7261864;19;154121;-83
2023/04/19 10:23:41;;;;;;;;;;;;;;;20.73;44.99;102293.81;7273179;19;153927;-82
2023/04/19 10:26:08;;;;;;;;;;;;;;;20.72;45.14;102297.75;7277409;19;153116;-82
2023/04/19 10:28:36;;;;;;;;;;;;;;;20.73;44.96;102294.69;7270659;19;153808;-83
2023/04/19 10:31:04;;;;;;;;;;;;;;;20.73;45.00;102291.00;7273912;19;153225;-83
2023/04/19 10:33:34;;;;;;;;;;;;;;;20.73;45.25;102297.47;7273276;19;153721;-83
2023/04/19 10:36:01;;;;;;;;;;;;;;;20.71;45.29;102293.28;7267854;19;154040;-82
2023/04/19 10:38:31;;;;;;;;;;;;;;;20.72;45.13;102281.75;7273073;19;152933;-83
2023/04/19 10:41:00;;;;;;;;;;;;;;;20.70;45.44;102284.00;7274003;19;153095;-82
2023/04/19 10:43:28;;;;;;;;;;;;;;;20.72;44.96;102284.56;7273838;19;153606;-82
2023/04/19 10:45:59;;;;;;;;;;;;;;;20.69;44.99;102276.69;7267606;19;154099;-83
2023/04/19 10:50:58;;;;;;;;;;;;;;;20.72;45.43;102276.13;7271386;19;152481;-82
2023/04/19 10:53:28;;;;;;;;;;;;;;;20.72;45.51;102269.66;7271614;19;154258;-82
2023/04/19 10:55:55;;;;;;;;;;;;;;;20.71;45.17;102285.69;7265731;19;154268;-82
2023/04/19 10:58:22;;;;;;;;;;;;;;;20.72;45.33;102278.09;7265135;19;153319;-83
2023/04/19 11:00:49;;;;;;;;;;;;;;;20.70;45.29;102272.75;7269442;19;153774;-83
2023/04/19 11:03:20;;;;;;;;;;;;;;;20.71;45.31;102274.47;7266946;19;154478;-83
2023/04/19 11:05:51;;;;;;;;;;;;;;;20.70;45.49;102261.53;7271788;19;154624;-82
2023/04/19 11:08:22;;;;;;;;;;;;;;;20.70;45.08;102271.91;7278181;19;153892;-82
2023/04/19 11:10:49;;;;;;;;;;;;;;;20.70;45.12;102271.91;7271874;19;152928;-82
2023/04/19 11:13:18;;;;;;;;;;;;;;;20.73;45.30;102266.59;7272073;19;152308;-82
2023/04/19 11:15:45;;;;;;;;;;;;;;;20.76;45.48;102265.16;7267041;19;153620;-82
2023/04/19 11:18:17;;;;;;;;;;;;;;;20.77;44.93;102261.25;7271221;19;154467;-82
2023/04/19 11:20:45;;;;;;;;;;;;;;;20.76;45.48;102266.03;7267691;19;154867;-82
2023/04/19 11:23:16;;;;;;;;;;;;;;;20.77;44.97;102253.66;7267469;19;154200;-83
2023/04/19 11:25:45;;;;;;;;;;;;;;;20.81;45.31;102254.78;7266157;19;152980;-82
2023/04/19 11:28:16;;;;;;;;;;;;;;;20.85;44.92;102249.47;7265929;19;152970;-82
2023/04/19 11:30:43;;;;;;;;;;;;;;;20.90;45.01;102252.28;7273760;19;153433;-83
2023/04/19 11:33:11;;;;;;;;;;;;;;;20.91;44.99;102244.69;7271565;19;154777;-83
2023/04/19 11:35:38;;;;;;;;;;;;;;;20.92;44.82;102244.44;7265389;19;155433;-83
2023/04/19 11:38:06;;;;;;;;;;;;;;;20.94;45.29;102244.16;7266706;19;153030;-82
2023/04/19 11:40:33;;;;;;;;;;;;;;;20.93;44.98;102240.50;7271647;19;153397;-82
2023/04/19 11:43:02;;;;;;;;;;;;;;;20.92;44.84;102236.00;7268402;19;154351;-82
2023/04/19 11:45:31;;;;;;;;;;;;;;;20.89;44.97;102228.13;7265542;19;153714;-79
2023/04/19 11:48:04;;;;;;;;;;;;;;;20.89;45.07;102230.94;7253739;19;154086;-80
2023/04/19 11:50:32;;;;;;;;;;;;;;;20.90;45.29;102221.38;7254137;19;154910;-80
2023/04/19 11:53:09;;;;;;;;;;;;;;;20.93;45.29;102226.44;7260649;19;153844;-80
2023/04/19 11:55:36;;;;;;;;;;;;;;;20.97;45.29;102221.09;7245893;19;155651;-79
2023/04/19 11:58:08;;;;;;;;;;;;;;;20.98;44.83;102217.19;7248510;19;153407;-79
2023/04/19 12:00:35;;;;;;;;;;;;;;;20.97;44.98;102213.53;7249285;19;154169;-80
2023/04/19 12:03:03;;;;;;;;;;;;;;;20.97;45.28;102221.94;7246916;19;157577;-80
2023/04/19 12:05:30;;;;;;;;;;;;;;;20.97;45.04;102209.88;7249983;19;152949;-79
2023/04/19 12:08:00;;;;;;;;;;;;;;;20.95;45.15;102212.94;7246452;19;153475;-79
2023/04/19 12:10:28;;;;;;;;;;;;;;;20.93;45.31;102229.25;7249937;19;157808;-79
2023/04/19 12:12:55;;;;;;;;;;;;;;;20.94;45.44;102213.25;7251162;19;152318;-80
2023/04/19 12:15:22;;;;;;;;;;;;;;;20.94;45.20;102213.25;7255119;19;154485;-79
2023/04/19 12:17:55;;;;;;;;;;;;;;;20.96;45.41;102214.63;7250667;19;152784;-80
2023/04/19 12:20:26;;;;;;;;;;;;;;;21.00;45.54;102209.28;7252854;19;153239;-80
2023/04/19 12:22:53;;;;;;;;;;;;;;;21.05;45.51;102204.53;7246936;19;154556;-80
2023/04/19 12:25:21;;;;;;;;;;;;;;;21.12;45.59;102209.88;7245486;19;153418;-80
2023/04/19 12:27:48;;;;;;;;;;;;;;;21.22;45.50;102212.69;7249091;19;154130;-79
2023/04/19 12:30:15;;;;;;;;;;;;;;;21.29;45.27;102204.81;7245281;19;152762;-79
2023/04/19 12:32:43;;;;;;;;;;;;;;;21.36;45.00;102185.69;7252010;19;153761;-79
2023/04/19 12:35:10;;;;;;;;;;;;;;;21.41;44.99;102199.75;7248756;19;155857;-80
2023/04/19 12:37:37;;;;;;;;;;;;;;;21.45;45.05;102195.22;7248970;19;156769;-81
2023/04/19 12:40:05;;;;;;;;;;;;;;;21.50;45.05;102186.78;7248555;19;153311;-80